Observation data for Plains on 03/06/2021      Previous  Date  Next       Current Mesonet Observations  Soil Data  Daily Summary Page  Observations in Plain Language
KPPS 060600Z 00006KT 02/M01 A3034 RMK A01 T00201010  RH  081%=      5-min Rain = 0
KPPS 060605Z 36005KT 02/M01 A3034 RMK A01 T00191010  RH  082%=      5-min Rain = 0
KPPS 060610Z 35005KT 02/M01 A3034 RMK A01 T00181010  RH  082%=      5-min Rain = 0
KPPS 060615Z 33005KT 02/M01 A3034 RMK A01 T00161013  RH  082%=      5-min Rain = 0
KPPS 060620Z 32005KT 01/M02 A3034 RMK A01 T00111017  RH  082%=      5-min Rain = 0
KPPS 060625Z 34005KT 01/M01 A3034 RMK A01 T00111014  RH  084%=      5-min Rain = 0
KPPS 060630Z 35005KT 01/M01 A3034 RMK A01 T00121013  RH  084%=      5-min Rain = 0
KPPS 060635Z 35004KT 01/M01 A3034 RMK A01 T00111013  RH  084%=      5-min Rain = 0
KPPS 060640Z 35004KT 01/M01 A3034 RMK A01 T00101014  RH  084%=      5-min Rain = 0
KPPS 060645Z 35006KT 01/M02 A3034 RMK A01 T00081016  RH  084%=      5-min Rain = 0
KPPS 060650Z 36005KT 01/M02 A3034 RMK A01 T00061018  RH  085%=      5-min Rain = 0
KPPS 060655Z 00005KT 01/M02 A3034 RMK A01 T00061017  RH  085%=      5-min Rain = 0
KPPS 060700Z 36006KT 01/M02 A3034 RMK A01 T00071015  RH  086%=      5-min Rain = 0
KPPS 060705Z 00006KT 01/M01 A3033 RMK A01 T00101012  RH  086%=      5-min Rain = 0
KPPS 060710Z 00006KT 01/M01 A3033 RMK A01 T00131010  RH  086%=      5-min Rain = 0
KPPS 060715Z 00006KT 01/M01 A3033 RMK A01 T00121011  RH  085%=      5-min Rain = 0
KPPS 060720Z 01005KT 01/M01 A3033 RMK A01 T00101013  RH  085%=      5-min Rain = 0
KPPS 060725Z 00005KT 01/M01 A3033 RMK A01 T00091014  RH  086%=      5-min Rain = 0
KPPS 060730Z 00003KT 01/M01 A3033 RMK A01 T00091013  RH  087%=      5-min Rain = 0
KPPS 060735Z 01003KT 01/M01 A3033 RMK A01 T00081013  RH  086%=      5-min Rain = 0
KPPS 060740Z 00003KT 01/M01 A3033 RMK A01 T00081013  RH  086%=      5-min Rain = 0
KPPS 060745Z 34004KT 01/M02 A3033 RMK A01 T00061016  RH  086%=      5-min Rain = 0
KPPS 060750Z 32003KT 00/M02 A3033 RMK A01 T00021020  RH  085%=      5-min Rain = 0
KPPS 060755Z 33004KT 00/M02 A3033 RMK A01 T00011020  RH  086%=      5-min Rain = 0
KPPS 060800Z 33005KT 00/M02 A3034 RMK A01 T00021018  RH  087%=      5-min Rain = 0
KPPS 060805Z 33004KT 00/M02 A3034 RMK A01 T00021019  RH  087%=      5-min Rain = 0
KPPS 060810Z 33004KT 00/M02 A3033 RMK A01 T00021018  RH  087%=      5-min Rain = 0
KPPS 060815Z 34004KT 00/02 A3033 RMK A01 T00000-20  RH  087%=      5-min Rain = 0
KPPS 060820Z 34004KT M00/M02 A3034 RMK A01 T10031022  RH  087%=      5-min Rain = 0
KPPS 060825Z 35004KT M00/M02 A3034 RMK A01 T10031022  RH  088%=      5-min Rain = 0
KPPS 060830Z 35003KT M00/M02 A3034 RMK A01 T10021019  RH  089%=      5-min Rain = 0
KPPS 060835Z 35003KT 00/02 A3034 RMK A01 T00-00-18  RH  089%=      5-min Rain = 0
KPPS 060840Z 35003KT M00/M02 A3034 RMK A01 T10011019  RH  088%=      5-min Rain = 0
KPPS 060845Z 35003KT M00/M02 A3034 RMK A01 T10011019  RH  088%=      5-min Rain = 0
KPPS 060850Z 34003KT 00/02 A3034 RMK A01 T00-00-19  RH  088%=      5-min Rain = 0
KPPS 060855Z 31004KT M00/M03 A3034 RMK A01 T10041026  RH  086%=      5-min Rain = 0
KPPS 060900Z 29004KT M01/M03 A3034 RMK A01 T10081030  RH  085%=      5-min Rain = 0
KPPS 060905Z 27004KT M01/M04 A3034 RMK A01 T10131037  RH  084%=      5-min Rain = 0
KPPS 060910Z 27005KT M02/M04 A3034 RMK A01 T10171038  RH  086%=      5-min Rain = 0
KPPS 060915Z 27006KT M02/M04 A3034 RMK A01 T10171037  RH  087%=      5-min Rain = 0
KPPS 060920Z 28006KT M02/M04 A3034 RMK A01 T10171035  RH  088%=      5-min Rain = 0
KPPS 060925Z 28006KT M02/M04 A3033 RMK A01 T10171035  RH  087%=      5-min Rain = 0
KPPS 060930Z 29006KT M01/M03 A3033 RMK A01 T10141033  RH  088%=      5-min Rain = 0
KPPS 060935Z 30005KT M01/M03 A3033 RMK A01 T10101028  RH  088%=      5-min Rain = 0
KPPS 060940Z 30005KT M01/M03 A3032 RMK A01 T10071025  RH  089%=      5-min Rain = 0
KPPS 060945Z 30005KT M01/M02 A3032 RMK A01 T10061023  RH  089%=      5-min Rain = 0
KPPS 060950Z 30005KT M01/M02 A3032 RMK A01 T10051023  RH  088%=      5-min Rain = 0
KPPS 060955Z 30005KT M00/M02 A3032 RMK A01 T10041022  RH  088%=      5-min Rain = 0
KPPS 061000Z 31005KT M01/M03 A3032 RMK A01 T10061026  RH  088%=      5-min Rain = 0
KPPS 061005Z 30005KT M01/M03 A3032 RMK A01 T10081025  RH  088%=      5-min Rain = 0
KPPS 061010Z 29005KT M01/M02 A3033 RMK A01 T10071024  RH  089%=      5-min Rain = 0
KPPS 061015Z 29005KT M01/M03 A3033 RMK A01 T10081025  RH  089%=      5-min Rain = 0
KPPS 061020Z 29005KT M01/M03 A3033 RMK A01 T10121030  RH  088%=      5-min Rain = 0
KPPS 061025Z 30006KT M02/M04 A3033 RMK A01 T10171036  RH  087%=      5-min Rain = 0
KPPS 061030Z 30006KT M02/M04 A3033 RMK A01 T10201039  RH  087%=      5-min Rain = 0
KPPS 061035Z 30006KT M02/M04 A3033 RMK A01 T10181035  RH  088%=      5-min Rain = 0
KPPS 061040Z 31005KT M02/M03 A3033 RMK A01 T10151032  RH  089%=      5-min Rain = 0
KPPS 061045Z 30006KT M02/M04 A3033 RMK A01 T10161035  RH  087%=      5-min Rain = 0
KPPS 061050Z 30005KT M02/M04 A3033 RMK A01 T10181038  RH  087%=      5-min Rain = 0
KPPS 061055Z 30005KT M02/M04 A3034 RMK A01 T10211041  RH  087%=      5-min Rain = 0
KPPS 061100Z 31006KT M02/M03 A3034 RMK A01 T10151031  RH  089%=      5-min Rain = 0
KPPS 061105Z 30006KT M01/M03 A3034 RMK A01 T10141031  RH  089%=      5-min Rain = 0
KPPS 061110Z 30005KT M02/M03 A3034 RMK A01 T10151032  RH  089%=      5-min Rain = 0
KPPS 061115Z 30005KT M02/M04 A3034 RMK A01 T10181035  RH  088%=      5-min Rain = 0
KPPS 061120Z 30004KT M03/M05 A3034 RMK A01 T10251045  RH  087%=      5-min Rain = 0
KPPS 061125Z 30004KT M03/M05 A3034 RMK A01 T10281047  RH  087%=      5-min Rain = 0
KPPS 061130Z 30004KT M03/M05 A3034 RMK A01 T10291047  RH  087%=      5-min Rain = 0
KPPS 061135Z 30004KT M03/M05 A3034 RMK A01 T10281046  RH  088%=      5-min Rain = 0
KPPS 061140Z 30004KT M03/M05 A3034 RMK A01 T10281047  RH  087%=      5-min Rain = 0
KPPS 061145Z 30004KT M03/M05 A3034 RMK A01 T10301049  RH  087%=      5-min Rain = 0
KPPS 061150Z 30005KT M03/M05 A3034 RMK A01 T10311049  RH  088%=      5-min Rain = 0
KPPS 061155Z 30005KT M03/M05 A3034 RMK A01 T10311048  RH  088%=      5-min Rain = 0
KPPS 061200Z 30006KT M03/M05 A3034 RMK A01 T10281045  RH  089%=      5-min Rain = 0
KPPS 061205Z 30006KT M03/M04 A3034 RMK A01 T10251041  RH  089%=      5-min Rain = 0
KPPS 061210Z 31006KT M02/M04 A3034 RMK A01 T10241040  RH  089%=      5-min Rain = 0
KPPS 061215Z 32006KT M02/M04 A3034 RMK A01 T10241041  RH  089%=      5-min Rain = 0
KPPS 061220Z 32006KT M03/M04 A3034 RMK A01 T10251042  RH  089%=      5-min Rain = 0
KPPS 061225Z 32006KT M03/M04 A3034 RMK A01 T10271043  RH  089%=      5-min Rain = 0
KPPS 061230Z 32006KT M03/M04 A3034 RMK A01 T10271041  RH  091%=      5-min Rain = 0
KPPS 061235Z 32007KT M03/M04 A3034 RMK A01 T10271039  RH  092%=      5-min Rain = 0
KPPS 061240Z 32008KT M03/M04 A3034 RMK A01 T10261038  RH  092%=      5-min Rain = 0
KPPS 061245Z 32008KT M03/M04 A3034 RMK A01 T10271038  RH  092%=      5-min Rain = 0
KPPS 061250Z 32008KT M03/M04 A3034 RMK A01 T10251036  RH  093%=      5-min Rain = 0
KPPS 061255Z 33008KT M02/M03 A3034 RMK A01 T10231034  RH  093%=      5-min Rain = 0
KPPS 061300Z 33008KT M02/M03 A3034 RMK A01 T10211031  RH  093%=      5-min Rain = 0
KPPS 061305Z 33008KT M02/M03 A3034 RMK A01 T10201030  RH  093%=      5-min Rain = 0
KPPS 061310Z 33008KT M02/M03 A3034 RMK A01 T10201029  RH  094%=      5-min Rain = 0
KPPS 061315Z 33008KT M02/M03 A3034 RMK A01 T10191029  RH  094%=      5-min Rain = 0
KPPS 061320Z 33008KT M02/M03 A3033 RMK A01 T10191028  RH  094%=      5-min Rain = 0
KPPS 061325Z 33007KT M02/M03 A3033 RMK A01 T10201030  RH  094%=      5-min Rain = 0
KPPS 061330Z 33007KT M02/M03 A3033 RMK A01 T10201030  RH  094%=      5-min Rain = 0
KPPS 061335Z 34007KT M02/M03 A3033 RMK A01 T10191028  RH  094%=      5-min Rain = 0
KPPS 061340Z 33007KT M02/M03 A3033 RMK A01 T10171027  RH  094%=      5-min Rain = 0
KPPS 061345Z 34007KT M02/M03 A3033 RMK A01 T10151025  RH  094%=      5-min Rain = 0
KPPS 061350Z 34006KT M01/M02 A3033 RMK A01 T10121022  RH  093%=      5-min Rain = 0
KPPS 061355Z 34006KT M01/M02 A3033 RMK A01 T10081020  RH  093%=      5-min Rain = 0
KPPS 061400Z 34005KT M01/M02 A3033 RMK A01 T10051017  RH  092%=      5-min Rain = 0
KPPS 061405Z 34005KT M00/M02 A3033 RMK A01 T10011015  RH  092%=      5-min Rain = 0
KPPS 061410Z 34005KT 00/M01 A3034 RMK A01 T00031012  RH  091%=      5-min Rain = 0
KPPS 061415Z 33004KT 01/M01 A3034 RMK A01 T00071009  RH  090%=      5-min Rain = 0
KPPS 061420Z 31003KT 01/M00 A3034 RMK A01 T00141004  RH  089%=      5-min Rain = 0
KPPS 061425Z 31004KT 02/00 A3034 RMK A01 T00220002  RH  088%=      5-min Rain = 0
KPPS 061430Z 31003KT 03/01 A3034 RMK A01 T00290007  RH  086%=      5-min Rain = 0
KPPS 061435Z 31003KT 04/01 A3035 RMK A01 T00350008  RH  084%=      5-min Rain = 0
KPPS 061440Z 30003KT 04/01 A3035 RMK A01 T00380009  RH  082%=      5-min Rain = 0
KPPS 061445Z 31002KT 04/01 A3035 RMK A01 T00430011  RH  081%=      5-min Rain = 0
KPPS 061450Z 30002KT 05/01 A3035 RMK A01 T00480014  RH  079%=      5-min Rain = 0
KPPS 061455Z 30001KT 06/02 A3035 RMK A01 T00550017  RH  078%=      5-min Rain = 0
KPPS 061500Z 30001KT 06/02 A3035 RMK A01 T00600019  RH  076%=      5-min Rain = 0
KPPS 061505Z 30002KT 06/02 A3035 RMK A01 T00620020  RH  075%=      5-min Rain = 0
KPPS 061510Z 28002KT 07/02 A3035 RMK A01 T00660022  RH  075%=      5-min Rain = 0
KPPS 061515Z 28002KT 07/03 A3035 RMK A01 T00700025  RH  074%=      5-min Rain = 0
KPPS 061520Z 28002KT 08/03 A3035 RMK A01 T00750025  RH  072%=      5-min Rain = 0
KPPS 061525Z 27002KT 08/03 A3035 RMK A01 T00800026  RH  070%=      5-min Rain = 0
KPPS 061530Z 28002KT 08/02 A3035 RMK A01 T00820024  RH  068%=      5-min Rain = 0
KPPS 061535Z 26002KT 09/02 A3035 RMK A01 T00850024  RH  067%=      5-min Rain = 0
KPPS 061540Z 23001KT 09/02 A3035 RMK A01 T00880024  RH  065%=      5-min Rain = 0
KPPS 061545Z 31001KT 09/02 A3035 RMK A01 T00920023  RH  063%=      5-min Rain = 0
KPPS 061550Z 31002KT 09/02 A3035 RMK A01 T00920021  RH  062%=      5-min Rain = 0
KPPS 061555Z 34000KT 10/02 A3035 RMK A01 T00950021  RH  061%=      5-min Rain = 0
KPPS 061600Z 34000KT 10/02 A3035 RMK A01 T01000018  RH  058%=      5-min Rain = 0
KPPS 061605Z 29000KT 10/02 A3035 RMK A01 T01020019  RH  057%=      5-min Rain = 0
KPPS 061610Z 26001KT 10/02 A3035 RMK A01 T01040020  RH  057%=      5-min Rain = 0
KPPS 061615Z 25001KT 10/02 A3035 RMK A01 T01040020  RH  057%=      5-min Rain = 0
KPPS 061620Z 27002KT 10/02 A3035 RMK A01 T01010019  RH  058%=      5-min Rain = 0
KPPS 061625Z 26003KT 10/02 A3035 RMK A01 T01010019  RH  057%=      5-min Rain = 0
KPPS 061630Z 26003KT 10/02 A3035 RMK A01 T01030019  RH  057%=      5-min Rain = 0
KPPS 061635Z 27001KT 11/02 A3035 RMK A01 T01070019  RH  056%=      5-min Rain = 0
KPPS 061640Z 29001KT 11/02 A3035 RMK A01 T01110021  RH  055%=      5-min Rain = 0
KPPS 061645Z 22002KT 11/02 A3035 RMK A01 T01140022  RH  054%=      5-min Rain = 0
KPPS 061650Z 09005KT 12/02 A3035 RMK A01 T01150019  RH  052%=      5-min Rain = 0
KPPS 061655Z 07003KT 11/02 A3035 RMK A01 T01120018  RH  053%=      5-min Rain = 0
KPPS 061700Z 14002KT 11/02 A3035 RMK A01 T01140018  RH  052%=      5-min Rain = 0
KPPS 061705Z 36002KT 12/02 A3035 RMK A01 T01160018  RH  052%=      5-min Rain = 0
KPPS 061710Z 22002KT 12/02 A3035 RMK A01 T01180019  RH  052%=      5-min Rain = 0
KPPS 061715Z 16005KT 12/02 A3035 RMK A01 T01230015  RH  048%=      5-min Rain = 0
KPPS 061720Z 16004KT 12/02 A3035 RMK A01 T01240015  RH  048%=      5-min Rain = 0
KPPS 061725Z 19005KT 13/01 A3035 RMK A01 T01270012  RH  046%=      5-min Rain = 0
KPPS 061730Z 14005G10KT 13/01 A3035 RMK A01 T01270013  RH  046%=      5-min Rain = 0
KPPS 061735Z 13009KT 13/00 A3034 RMK A01 T01260000  RH  042%=      5-min Rain = 0
KPPS 061740Z 12007G12KT 13/M00 A3034 RMK A01 T01251003  RH  042%=      5-min Rain = 0
KPPS 061745Z 13006KT 13/M01 A3034 RMK A01 T01261007  RH  040%=      5-min Rain = 0
KPPS 061750Z 12008KT 13/00 A3034 RMK A01 T01290001  RH  042%=      5-min Rain = 0
KPPS 061755Z 11007G12KT 13/00 A3033 RMK A01 T01270002  RH  043%=      5-min Rain = 0
KPPS 061800Z 14009KT 13/M00 A3033 RMK A01 T01301002  RH  041%=      5-min Rain = 0
KPPS 061805Z 10009KT 13/M01 A3033 RMK A01 T01301005  RH  040%=      5-min Rain = 0
KPPS 061810Z 09007KT 13/M00 A3033 RMK A01 T01271003  RH  041%=      5-min Rain = 0
KPPS 061815Z 12008G13KT 13/M01 A3033 RMK A01 T01281010  RH  039%=      5-min Rain = 0
KPPS 061820Z 13008G13KT 13/M01 A3032 RMK A01 T01331012  RH  037%=      5-min Rain = 0
KPPS 061825Z 12009G15KT 13/M01 A3032 RMK A01 T01331005  RH  039%=      5-min Rain = 0
KPPS 061830Z 10006G13KT 13/M01 A3032 RMK A01 T01311009  RH  038%=      5-min Rain = 0
KPPS 061835Z 13010G15KT 13/M02 A3032 RMK A01 T01341021  RH  034%=      5-min Rain = 0
KPPS 061840Z 11008G13KT 13/M02 A3031 RMK A01 T01331020  RH  035%=      5-min Rain = 0
KPPS 061845Z 16009KT 14/M01 A3031 RMK A01 T01361014  RH  036%=      5-min Rain = 0
KPPS 061850Z 13009G18KT 14/M01 A3031 RMK A01 T01361014  RH  036%=      5-min Rain = 0
KPPS 061855Z 11006G11KT 13/M01 A3031 RMK A01 T01321014  RH  037%=      5-min Rain = 0
KPPS 061900Z 12006G12KT 13/M01 A303 RMK A01 T01321014  RH  037%=      5-min Rain = 0
KPPS 061905Z 13009G15KT 14/M02 A303 RMK A01 T01371015  RH  035%=      5-min Rain = 0
KPPS 061910Z 11008KT 14/M02 A303 RMK A01 T01361016  RH  035%=      5-min Rain = 0
KPPS 061915Z 14007G14KT 14/M02 A3029 RMK A01 T01381015  RH  035%=      5-min Rain = 0
KPPS 061920Z 16009KT 14/M02 A3029 RMK A01 T01421019  RH  033%=      5-min Rain = 0
KPPS 061925Z 15009G16KT 15/M02 A3028 RMK A01 T01451018  RH  033%=      5-min Rain = 0
KPPS 061930Z 15009G15KT 15/M02 A3028 RMK A01 T01451024  RH  031%=      5-min Rain = 0
KPPS 061935Z 14008G15KT 15/M02 A3027 RMK A01 T01461017  RH  033%=      5-min Rain = 0
KPPS 061940Z 17012G17KT 15/M02 A3027 RMK A01 T01451021  RH  032%=      5-min Rain = 0
KPPS 061945Z 16009G15KT 15/M02 A3027 RMK A01 T01451019  RH  032%=      5-min Rain = 0
KPPS 061950Z 13010KT 14/M03 A3026 RMK A01 T01431027  RH  031%=      5-min Rain = 0
KPPS 061955Z 13010KT 15/M03 A3026 RMK A01 T01451032  RH  030%=      5-min Rain = 0
KPPS 062000Z 12010G16KT 15/M02 A3026 RMK A01 T01451021  RH  032%=      5-min Rain = 0
KPPS 062005Z 14008G16KT 14/M03 A3026 RMK A01 T01441025  RH  031%=      5-min Rain = 0
KPPS 062010Z 14011G18KT 15/M03 A3025 RMK A01 T01491032  RH  029%=      5-min Rain = 0
KPPS 062015Z 14007G12KT 15/M03 A3025 RMK A01 T01471027  RH  030%=      5-min Rain = 0
KPPS 062020Z 15008G16KT 15/M03 A3025 RMK A01 T01461026  RH  031%=      5-min Rain = 0
KPPS 062025Z 15010G16KT 15/M03 A3024 RMK A01 T01481032  RH  029%=      5-min Rain = 0
KPPS 062030Z 14008KT 15/M03 A3024 RMK A01 T01511027  RH  030%=      5-min Rain = 0
KPPS 062035Z 14010G15KT 15/M03 A3024 RMK A01 T01491034  RH  028%=      5-min Rain = 0
KPPS 062040Z 15010KT 15/M03 A3023 RMK A01 T01531034  RH  028%=      5-min Rain = 0
KPPS 062045Z 17010KT 15/M04 A3023 RMK A01 T01531036  RH  027%=      5-min Rain = 0
KPPS 062050Z 16008G14KT 15/M03 A3023 RMK A01 T01491033  RH  028%=      5-min Rain = 0
KPPS 062055Z 16011G16KT 15/M03 A3023 RMK A01 T01511032  RH  028%=      5-min Rain = 0
KPPS 062100Z 15009G15KT 15/M03 A3023 RMK A01 T01511034  RH  028%=      5-min Rain = 0
KPPS 062105Z 14011G17KT 15/M03 A3023 RMK A01 T01511033  RH  028%=      5-min Rain = 0
KPPS 062110Z 14010G15KT 15/M03 A3022 RMK A01 T01541032  RH  028%=      5-min Rain = 0
KPPS 062115Z 15012KT 15/M03 A3022 RMK A01 T01541031  RH  028%=      5-min Rain = 0
KPPS 062120Z 13010G17KT 15/M03 A3022 RMK A01 T01521033  RH  028%=      5-min Rain = 0
KPPS 062125Z 13010G15KT 15/M03 A3021 RMK A01 T01541034  RH  027%=      5-min Rain = 0
KPPS 062130Z 16009G15KT 16/M04 A3021 RMK A01 T01561039  RH  026%=      5-min Rain = 0
KPPS 062135Z 15011G16KT 16/M03 A3021 RMK A01 T01551034  RH  027%=      5-min Rain = 0
KPPS 062140Z 14008KT 15/M03 A302 RMK A01 T01541033  RH  028%=      5-min Rain = 0
KPPS 062145Z 17011KT 15/M03 A302 RMK A01 T01541033  RH  028%=      5-min Rain = 0
KPPS 062150Z 18010KT 15/M03 A302 RMK A01 T01541030  RH  028%=      5-min Rain = 0
KPPS 062155Z 15008G13KT 15/M03 A302 RMK A01 T01531028  RH  029%=      5-min Rain = 0
KPPS 062200Z 12009KT 16/M03 A302 RMK A01 T01561031  RH  028%=      5-min Rain = 0
KPPS 062205Z 14011G16KT 16/M03 A302 RMK A01 T01581029  RH  028%=      5-min Rain = 0
KPPS 062210Z 16007G15KT 16/M03 A302 RMK A01 T01551028  RH  028%=      5-min Rain = 0
KPPS 062215Z 15011KT 16/M03 A302 RMK A01 T01571030  RH  028%=      5-min Rain = 0
KPPS 062220Z 13011G16KT 16/M03 A302 RMK A01 T01571032  RH  027%=      5-min Rain = 0
KPPS 062225Z 14012G17KT 16/M04 A3019 RMK A01 T01561038  RH  026%=      5-min Rain = 0
KPPS 062230Z 15013G18KT 16/M04 A3019 RMK A01 T01561042  RH  025%=      5-min Rain = 0
KPPS 062235Z 15011KT 16/M04 A3019 RMK A01 T01561039  RH  026%=      5-min Rain = 0
KPPS 062240Z 16009G14KT 16/M04 A3019 RMK A01 T01561037  RH  026%=      5-min Rain = 0
KPPS 062245Z 13012KT 15/M04 A3019 RMK A01 T01541035  RH  027%=      5-min Rain = 0
KPPS 062250Z 13011KT 15/M03 A3018 RMK A01 T01531034  RH  028%=      5-min Rain = 0
KPPS 062255Z 13010KT 15/M04 A3018 RMK A01 T01511036  RH  027%=      5-min Rain = 0
KPPS 062300Z 13012KT 15/M04 A3018 RMK A01 T01521038  RH  027%=      5-min Rain = 0
KPPS 062305Z 14012KT 16/M04 A3018 RMK A01 T01551038  RH  026%=      5-min Rain = 0
KPPS 062310Z 15011KT 16/M04 A3018 RMK A01 T01561035  RH  027%=      5-min Rain = 0
KPPS 062315Z 15012G17KT 15/M03 A3018 RMK A01 T01541033  RH  028%=      5-min Rain = 0
KPPS 062320Z 14010KT 15/M03 A3018 RMK A01 T01511034  RH  028%=      5-min Rain = 0
KPPS 062325Z 14009G14KT 15/M03 A3018 RMK A01 T01521034  RH  028%=      5-min Rain = 0
KPPS 062330Z 15009G14KT 15/M03 A3018 RMK A01 T01521034  RH  028%=      5-min Rain = 0
KPPS 062335Z 15011KT 15/M03 A3018 RMK A01 T01521032  RH  028%=      5-min Rain = 0
KPPS 062340Z 15008KT 15/M03 A3018 RMK A01 T01511031  RH  028%=      5-min Rain = 0
KPPS 062345Z 14010KT 15/M03 A3018 RMK A01 T01511030  RH  029%=      5-min Rain = 0
KPPS 062350Z 15012KT 15/M03 A3018 RMK A01 T01511028  RH  029%=      5-min Rain = 0
KPPS 062355Z 14011KT 15/M03 A3018 RMK A01 T01481028  RH  030%=      5-min Rain = 0
KPPS 070000Z 16008KT 15/M03 A3018 RMK A01 T01491034  RH  028%=      5-min Rain = 0
KPPS 070005Z 15009KT 15/M03 A3018 RMK A01 T01481030  RH  029%=      5-min Rain = 0
KPPS 070010Z 15013KT 15/M03 A3018 RMK A01 T01471028  RH  030%=      5-min Rain = 0
KPPS 070015Z 15012KT 14/M03 A3018 RMK A01 T01441029  RH  030%=      5-min Rain = 0
KPPS 070020Z 14011KT 14/M03 A3018 RMK A01 T01421029  RH  031%=      5-min Rain = 0
KPPS 070025Z 16010KT 14/M03 A3019 RMK A01 T01411028  RH  031%=      5-min Rain = 0
KPPS 070030Z 15010KT 14/M03 A3019 RMK A01 T01401028  RH  031%=      5-min Rain = 0
KPPS 070035Z 15010KT 14/M03 A3019 RMK A01 T01371028  RH  032%=      5-min Rain = 0
KPPS 070040Z 15008KT 13/M03 A3019 RMK A01 T01341028  RH  033%=      5-min Rain = 0
KPPS 070045Z 16007KT 13/M03 A3019 RMK A01 T01301029  RH  033%=      5-min Rain = 0
KPPS 070050Z 16007KT 13/M03 A3019 RMK A01 T01281032  RH  033%=      5-min Rain = 0
KPPS 070055Z 16008KT 13/M03 A3019 RMK A01 T01261033  RH  033%=      5-min Rain = 0
KPPS 070100Z 15008KT 12/M03 A3019 RMK A01 T01241033  RH  033%=      5-min Rain = 0
KPPS 070105Z 16008KT 12/M04 A3019 RMK A01 T01211035  RH  034%=      5-min Rain = 0
KPPS 070110Z 16008KT 12/M04 A3019 RMK A01 T01191036  RH  034%=      5-min Rain = 0
KPPS 070115Z 14007KT 11/M04 A3019 RMK A01 T01131038  RH  035%=      5-min Rain = 0
KPPS 070120Z 13007KT 10/M04 A3019 RMK A01 T01041040  RH  036%=      5-min Rain = 0
KPPS 070125Z 14007KT 10/M04 A3019 RMK A01 T00991039  RH  038%=      5-min Rain = 0
KPPS 070130Z 14007KT 10/M04 A3019 RMK A01 T00961038  RH  039%=      5-min Rain = 0
KPPS 070135Z 13006KT 09/M04 A3019 RMK A01 T00931039  RH  039%=      5-min Rain = 0
KPPS 070140Z 13006KT 09/M04 A3019 RMK A01 T00901039  RH  040%=      5-min Rain = 0
KPPS 070145Z 13006KT 09/M04 A3019 RMK A01 T00871039  RH  041%=      5-min Rain = 0
KPPS 070150Z 13006KT 08/M04 A3019 RMK A01 T00841038  RH  042%=      5-min Rain = 0
KPPS 070155Z 13007KT 08/M04 A3019 RMK A01 T00821037  RH  043%=      5-min Rain = 0
KPPS 070200Z 13006KT 08/M04 A3019 RMK A01 T00801036  RH  044%=      5-min Rain = 0
KPPS 070205Z 13006KT 08/M04 A3019 RMK A01 T00801036  RH  044%=      5-min Rain = 0
KPPS 070210Z 14007KT 08/M04 A3019 RMK A01 T00801035  RH  044%=      5-min Rain = 0
KPPS 070215Z 14008KT 08/M04 A3019 RMK A01 T00781035  RH  045%=      5-min Rain = 0
KPPS 070220Z 14008KT 08/M04 A3019 RMK A01 T00761036  RH  045%=      5-min Rain = 0
KPPS 070225Z 14008KT 07/M04 A3019 RMK A01 T00721038  RH  046%=      5-min Rain = 0
KPPS 070230Z 14008KT 07/M04 A3019 RMK A01 T00701039  RH  046%=      5-min Rain = 0
KPPS 070235Z 13008KT 07/M04 A3019 RMK A01 T00691040  RH  046%=      5-min Rain = 0
KPPS 070240Z 14008KT 07/M04 A3019 RMK A01 T00681039  RH  047%=      5-min Rain = 0
KPPS 070245Z 14008KT 07/M04 A3019 RMK A01 T00681038  RH  047%=      5-min Rain = 0
KPPS 070250Z 14008KT 07/M04 A302 RMK A01 T00671038  RH  048%=      5-min Rain = 0
KPPS 070255Z 14008KT 07/M04 A302 RMK A01 T00651038  RH  048%=      5-min Rain = 0
KPPS 070300Z 14008KT 06/M04 A302 RMK A01 T00641037  RH  049%=      5-min Rain = 0
KPPS 070305Z 14008KT 06/M04 A302 RMK A01 T00641036  RH  049%=      5-min Rain = 0
KPPS 070310Z 14009KT 06/M04 A302 RMK A01 T00641035  RH  049%=      5-min Rain = 0
KPPS 070315Z 14009KT 07/M03 A302 RMK A01 T00661033  RH  050%=      5-min Rain = 0
KPPS 070320Z 14008KT 07/M03 A302 RMK A01 T00661032  RH  050%=      5-min Rain = 0
KPPS 070325Z 14008KT 07/M03 A302 RMK A01 T00651032  RH  050%=      5-min Rain = 0
KPPS 070330Z 14008KT 06/M03 A302 RMK A01 T00631032  RH  051%=      5-min Rain = 0
KPPS 070335Z 14008KT 06/M03 A302 RMK A01 T00621032  RH  051%=      5-min Rain = 0
KPPS 070340Z 14009KT 06/M03 A302 RMK A01 T00611031  RH  052%=      5-min Rain = 0
KPPS 070345Z 15010KT 06/M03 A302 RMK A01 T00621030  RH  052%=      5-min Rain = 0
KPPS 070350Z 15010KT 06/M03 A302 RMK A01 T00631028  RH  052%=      5-min Rain = 0
KPPS 070355Z 15010KT 07/M03 A302 RMK A01 T00661026  RH  052%=      5-min Rain = 0
KPPS 070400Z 15009KT 07/M03 A3021 RMK A01 T00681026  RH  051%=      5-min Rain = 0
KPPS 070405Z 15009KT 07/M03 A3021 RMK A01 T00691025  RH  052%=      5-min Rain = 0
KPPS 070410Z 15008KT 07/M03 A3021 RMK A01 T00701025  RH  051%=      5-min Rain = 0
KPPS 070415Z 15008KT 07/M03 A3021 RMK A01 T00701025  RH  051%=      5-min Rain = 0
KPPS 070420Z 15008KT 07/M03 A3021 RMK A01 T00691026  RH  051%=      5-min Rain = 0
KPPS 070425Z 15008KT 06/M03 A3022 RMK A01 T00641027  RH  052%=      5-min Rain = 0
KPPS 070430Z 15009KT 06/M03 A3022 RMK A01 T00631026  RH  053%=      5-min Rain = 0
KPPS 070435Z 14008KT 06/M03 A3022 RMK A01 T00641026  RH  053%=      5-min Rain = 0
KPPS 070440Z 14008KT 06/M03 A3022 RMK A01 T00621027  RH  053%=      5-min Rain = 0
KPPS 070445Z 15008KT 06/M03 A3022 RMK A01 T00601027  RH  054%=      5-min Rain = 0
KPPS 070450Z 14007KT 06/M03 A3022 RMK A01 T00571028  RH  055%=      5-min Rain = 0
KPPS 070455Z 15008KT 06/M03 A3022 RMK A01 T00551027  RH  056%=      5-min Rain = 0
KPPS 070500Z 15009KT 06/M03 A3022 RMK A01 T00561026  RH  056%=      5-min Rain = 0
KPPS 070505Z 15009KT 06/M02 A3022 RMK A01 T00581024  RH  056%=      5-min Rain = 0
KPPS 070510Z 15009KT 06/M02 A3022 RMK A01 T00621022  RH  055%=      5-min Rain = 0
KPPS 070515Z 15009KT 06/M02 A3022 RMK A01 T00631022  RH  055%=      5-min Rain = 0
KPPS 070520Z 15009KT 06/M02 A3022 RMK A01 T00631022  RH  055%=      5-min Rain = 0
KPPS 070525Z 15008KT 06/M02 A3022 RMK A01 T00631021  RH  055%=      5-min Rain = 0
KPPS 070530Z 15008KT 06/M02 A3022 RMK A01 T00601023  RH  056%=      5-min Rain = 0
KPPS 070535Z 15009KT 06/M02 A3022 RMK A01 T00561024  RH  057%=      5-min Rain = 0
KPPS 070540Z 15009KT 06/M02 A3022 RMK A01 T00571022  RH  057%=      5-min Rain = 0
KPPS 070545Z 15008KT 06/M02 A3022 RMK A01 T00561022  RH  058%=      5-min Rain = 0
KPPS 070550Z 15009KT 05/M02 A3021 RMK A01 T00541022  RH  058%=      5-min Rain = 0
KPPS 070555Z 16009KT 05/M02 A3021 RMK A01 T00541021  RH  059%=      5-min Rain = 0

Page generated in 0.0129 seconds.